Terminal Aerodrome Forecast
Issued by NWS

Home | Current Version | Previous Version | Text Only | Print | Product List | Glossary On
Versions: 1 2 3 4 5 6 7 8 9 10 11 12 13 14 15 16 17
297
FTUS43 KEAX 202338
TAFSTJ
TAF
KSTJ 202338Z 2100/2124 12005KT P6SM OVC025
     FM210600 11004KT 4SM -DZ BR BKN008
     FM210700 11004KT 2SM -DZ BR BKN004
     FM212000 17007KT P6SM OVC015=

USA.gov is the U.S. government's official web portal to all federal, state and local government web resources and services.